KQA2258 HKJK-FMEE
Flight info
| Callsign | KQA2258 |
|---|---|
| Flight time | 3h 51m |
| Altitude | 35000 |
| Route | ATUDU1D GABSO UT913 ETMIS/N0451F370 UT913 KINAN UB790 DOBUT DOBUT2R |
| Aircraft | B738/M-SDE2E3FGHIRWXY/LB1 |
Departure
| Time | 2026-04-24 16:21 |
|---|---|
| Airport | Jomo Kenyatta International Airport (HKJK) |
Arrival
| Time | 2026-04-24 20:13 |
|---|---|
| Airport | Roland Garros Airport (FMEE) |
| Time | Latitude | Longitude | Altitude | Speed | Heading |
|---|---|---|---|---|---|
| 2026-04-24 16:07 | -1.33281 | 36.91710 | 5321 ft | 0 kts | 144° |
| 2026-04-24 16:13 | -1.33279 | 36.91708 | 5323 ft | 1 kts | 143° |
| 2026-04-24 16:14 | -1.33250 | 36.91686 | 5318 ft | 3 kts | 140° |
| 2026-04-24 16:14 | -1.33234 | 36.91672 | 5317 ft | 3 kts | 136° |
| 2026-04-24 16:14 | -1.33209 | 36.91642 | 5317 ft | 3 kts | 110° |
| 2026-04-24 16:15 | -1.33205 | 36.91631 | 5321 ft | 3 kts | 81° |
| 2026-04-24 16:15 | -1.33208 | 36.91622 | 5313 ft | 0 kts | 38° |
| 2026-04-24 16:18 | -1.33120 | 36.91702 | 5320 ft | 12 kts | 52° |
| 2026-04-24 16:18 | -1.33014 | 36.91816 | 5333 ft | 11 kts | 8° |
| 2026-04-24 16:18 | -1.32947 | 36.91783 | 5336 ft | 11 kts | 324° |
| 2026-04-24 16:19 | -1.32826 | 36.91698 | 5335 ft | 10 kts | 322° |
| 2026-04-24 16:19 | -1.32766 | 36.91665 | 5339 ft | 10 kts | 355° |
| 2026-04-24 16:20 | -1.32714 | 36.91699 | 5335 ft | 2 kts | 52° |
| 2026-04-24 16:20 | -1.32250 | 36.92334 | 5317 ft | 118 kts | 54° |
| 2026-04-24 16:20 | -1.31657 | 36.93139 | 5307 ft | 169 kts | 54° |
| 2026-04-24 16:21 | -1.30163 | 36.95290 | 6197 ft | 200 kts | 69° |
| 2026-04-24 16:21 | -1.29916 | 36.96665 | 6712 ft | 205 kts | 88° |
| 2026-04-24 16:21 | -1.29807 | 36.98088 | 7170 ft | 212 kts | 86° |
| 2026-04-24 16:22 | -1.29655 | 36.99635 | 7317 ft | 234 kts | 87° |
| 2026-04-24 16:22 | -1.29283 | 37.03092 | 7838 ft | 269 kts | 85° |
| 2026-04-24 16:22 | -1.29065 | 37.05004 | 8314 ft | 282 kts | 86° |
| 2026-04-24 16:23 | -1.28838 | 37.06964 | 9016 ft | 286 kts | 85° |
| 2026-04-24 16:23 | -1.28606 | 37.08944 | 9772 ft | 289 kts | 84° |
| 2026-04-24 16:23 | -1.28372 | 37.10969 | 10306 ft | 299 kts | 85° |
| 2026-04-24 16:24 | -1.29762 | 37.15004 | 10657 ft | 337 kts | 138° |
| 2026-04-24 16:24 | -1.31817 | 37.16131 | 11157 ft | 344 kts | 165° |
| 2026-04-24 16:24 | -1.34186 | 37.16619 | 11657 ft | 352 kts | 169° |
| 2026-04-24 16:24 | -1.36616 | 37.17033 | 12248 ft | 356 kts | 170° |
| 2026-04-24 16:25 | -1.39077 | 37.17434 | 12836 ft | 361 kts | 170° |
| 2026-04-24 16:25 | -1.41568 | 37.17844 | 13427 ft | 365 kts | 170° |
| 2026-04-24 16:25 | -1.44089 | 37.18270 | 13963 ft | 371 kts | 170° |
| 2026-04-24 16:26 | -1.49193 | 37.19159 | 15091 ft | 376 kts | 169° |
| 2026-04-24 16:26 | -1.51780 | 37.19619 | 15594 ft | 380 kts | 169° |
| 2026-04-24 16:26 | -1.57024 | 37.20559 | 16606 ft | 388 kts | 167° |
| 2026-04-24 16:27 | -1.59658 | 37.21034 | 17129 ft | 390 kts | 169° |
| 2026-04-24 16:27 | -1.62365 | 37.21522 | 17676 ft | 393 kts | 168° |
| 2026-04-24 16:27 | -1.65030 | 37.22003 | 18148 ft | 396 kts | 168° |
| 2026-04-24 16:27 | -1.67782 | 37.22499 | 18654 ft | 398 kts | 168° |
| 2026-04-24 16:28 | -1.70484 | 37.22986 | 19004 ft | 402 kts | 168° |
| 2026-04-24 16:28 | -1.73242 | 37.23483 | 19454 ft | 404 kts | 167° |
| 2026-04-24 16:28 | -1.78818 | 37.24488 | 20249 ft | 410 kts | 168° |
| 2026-04-24 16:29 | -1.81637 | 37.24996 | 20617 ft | 413 kts | 168° |
| 2026-04-24 16:29 | -1.84467 | 37.25506 | 21070 ft | 413 kts | 168° |
| 2026-04-24 16:29 | -1.90155 | 37.26531 | 21870 ft | 418 kts | 168° |
| 2026-04-24 16:30 | -1.95924 | 37.27572 | 22578 ft | 424 kts | 168° |
| 2026-04-24 16:30 | -1.98832 | 37.28096 | 22986 ft | 425 kts | 168° |
| 2026-04-24 16:30 | -2.01749 | 37.28622 | 23365 ft | 427 kts | 168° |
| 2026-04-24 16:31 | -2.04678 | 37.29150 | 23705 ft | 430 kts | 168° |
| 2026-04-24 16:31 | -2.07629 | 37.29682 | 23968 ft | 432 kts | 168° |
| 2026-04-24 16:31 | -2.10596 | 37.30216 | 24265 ft | 434 kts | 168° |
| 2026-04-24 16:31 | -2.13575 | 37.30754 | 24549 ft | 436 kts | 168° |
| 2026-04-24 16:32 | -2.15556 | 37.31111 | 24718 ft | 438 kts | 168° |
| 2026-04-24 16:32 | -2.19581 | 37.31837 | 25083 ft | 440 kts | 168° |
| 2026-04-24 16:32 | -2.22601 | 37.32381 | 25366 ft | 442 kts | 168° |
| 2026-04-24 16:32 | -2.25642 | 37.32929 | 25613 ft | 445 kts | 168° |
| 2026-04-24 16:33 | -2.28701 | 37.33481 | 25849 ft | 448 kts | 168° |
| 2026-04-24 16:33 | -2.31768 | 37.34035 | 26154 ft | 448 kts | 168° |
| 2026-04-24 16:33 | -2.34844 | 37.34589 | 26420 ft | 450 kts | 169° |
| 2026-04-24 16:33 | -2.37931 | 37.35146 | 26731 ft | 451 kts | 169° |
| 2026-04-24 16:34 | -2.41026 | 37.35704 | 26911 ft | 454 kts | 169° |
| 2026-04-24 16:34 | -2.44143 | 37.36267 | 27182 ft | 455 kts | 168° |
| 2026-04-24 16:34 | -2.47261 | 37.36830 | 27500 ft | 455 kts | 169° |
| 2026-04-24 16:34 | -2.50374 | 37.37391 | 27795 ft | 456 kts | 169° |
| 2026-04-24 16:35 | -2.53502 | 37.37967 | 28019 ft | 458 kts | 167° |
| 2026-04-24 16:35 | -2.56494 | 37.39043 | 28203 ft | 459 kts | 149° |
| 2026-04-24 16:35 | -2.59206 | 37.40726 | 28467 ft | 460 kts | 147° |
| 2026-04-24 16:35 | -2.61915 | 37.42450 | 28683 ft | 462 kts | 147° |
| 2026-04-24 16:36 | -2.64636 | 37.44168 | 28877 ft | 464 kts | 148° |
| 2026-04-24 16:36 | -2.67380 | 37.45878 | 29104 ft | 466 kts | 148° |
| 2026-04-24 16:36 | -2.70140 | 37.47580 | 29354 ft | 467 kts | 148° |
| 2026-04-24 16:36 | -2.72915 | 37.49280 | 29566 ft | 468 kts | 148° |
| 2026-04-24 16:37 | -2.75692 | 37.50978 | 29871 ft | 467 kts | 149° |
| 2026-04-24 16:37 | -2.78465 | 37.52674 | 30077 ft | 469 kts | 149° |
| 2026-04-24 16:37 | -2.80312 | 37.53804 | 30185 ft | 470 kts | 148° |
| 2026-04-24 16:37 | -2.84055 | 37.56096 | 30366 ft | 473 kts | 149° |
| 2026-04-24 16:38 | -2.86870 | 37.57817 | 30514 ft | 475 kts | 149° |
| 2026-04-24 16:38 | -2.88740 | 37.58952 | 30622 ft | 476 kts | 149° |
| 2026-04-24 16:38 | -2.91574 | 37.60666 | 30834 ft | 476 kts | 149° |
| 2026-04-24 16:38 | -2.94406 | 37.62375 | 31056 ft | 475 kts | 149° |
| 2026-04-24 16:39 | -2.97231 | 37.64080 | 31316 ft | 474 kts | 149° |
| 2026-04-24 16:39 | -3.00047 | 37.65781 | 31596 ft | 473 kts | 149° |
| 2026-04-24 16:39 | -3.02864 | 37.67484 | 31816 ft | 473 kts | 149° |
| 2026-04-24 16:39 | -3.05677 | 37.69186 | 32032 ft | 473 kts | 149° |
| 2026-04-24 16:40 | -3.08492 | 37.70890 | 32276 ft | 473 kts | 149° |
| 2026-04-24 16:40 | -3.11308 | 37.72595 | 32481 ft | 473 kts | 149° |
| 2026-04-24 16:40 | -3.14124 | 37.74300 | 32660 ft | 474 kts | 149° |
| 2026-04-24 16:40 | -3.16943 | 37.76007 | 32932 ft | 473 kts | 149° |
| 2026-04-24 16:41 | -3.19752 | 37.77707 | 33276 ft | 470 kts | 149° |
| 2026-04-24 16:41 | -3.22546 | 37.79400 | 33544 ft | 470 kts | 149° |
| 2026-04-24 16:41 | -3.25346 | 37.81095 | 33736 ft | 471 kts | 149° |
| 2026-04-24 16:41 | -3.28152 | 37.82794 | 33928 ft | 471 kts | 149° |
| 2026-04-24 16:42 | -3.30953 | 37.84491 | 34144 ft | 471 kts | 149° |
| 2026-04-24 16:42 | -3.33754 | 37.86187 | 34378 ft | 470 kts | 149° |
| 2026-04-24 16:42 | -3.36546 | 37.87878 | 34610 ft | 469 kts | 149° |
| 2026-04-24 16:42 | -3.39339 | 37.89571 | 34794 ft | 469 kts | 149° |
| 2026-04-24 16:43 | -3.42129 | 37.91261 | 34973 ft | 469 kts | 149° |
| 2026-04-24 16:43 | -3.44924 | 37.92954 | 35173 ft | 469 kts | 149° |
| 2026-04-24 16:43 | -3.47714 | 37.94645 | 35387 ft | 468 kts | 149° |
| 2026-04-24 16:43 | -3.50502 | 37.96335 | 35564 ft | 469 kts | 150° |
| 2026-04-24 16:44 | -3.53291 | 37.98025 | 35705 ft | 470 kts | 150° |
| 2026-04-24 16:44 | -3.56087 | 37.99720 | 35891 ft | 469 kts | 150° |
| 2026-04-24 16:44 | -3.58876 | 38.01411 | 36102 ft | 468 kts | 150° |
| 2026-04-24 16:44 | -3.61661 | 38.03100 | 36311 ft | 467 kts | 150° |
| 2026-04-24 16:45 | -3.64429 | 38.04793 | 36572 ft | 465 kts | 150° |
| 2026-04-24 16:45 | -3.67180 | 38.06487 | 36769 ft | 465 kts | 150° |
| 2026-04-24 16:45 | -3.69934 | 38.08186 | 36901 ft | 465 kts | 150° |
| 2026-04-24 16:45 | -3.72699 | 38.09891 | 36911 ft | 468 kts | 150° |
| 2026-04-24 16:46 | -3.78244 | 38.13309 | 36915 ft | 467 kts | 150° |
| 2026-04-24 16:46 | -3.83753 | 38.16703 | 36915 ft | 464 kts | 150° |
| 2026-04-24 16:47 | -3.89238 | 38.20080 | 36902 ft | 462 kts | 150° |
| 2026-04-24 16:47 | -3.94702 | 38.23446 | 36909 ft | 460 kts | 150° |
| 2026-04-24 16:48 | -4.00150 | 38.26803 | 36901 ft | 460 kts | 150° |
| 2026-04-24 16:48 | -4.05609 | 38.30164 | 36899 ft | 461 kts | 150° |
| 2026-04-24 16:49 | -4.11086 | 38.33519 | 36898 ft | 462 kts | 150° |
| 2026-04-24 16:49 | -4.16582 | 38.36882 | 36899 ft | 464 kts | 150° |
| 2026-04-24 16:50 | -4.22093 | 38.40257 | 36899 ft | 465 kts | 149° |
| 2026-04-24 16:50 | -4.27586 | 38.43624 | 36887 ft | 466 kts | 149° |
| 2026-04-24 16:51 | -4.33124 | 38.47019 | 36893 ft | 467 kts | 149° |
| 2026-04-24 16:51 | -4.38672 | 38.50421 | 36887 ft | 467 kts | 149° |
| 2026-04-24 16:52 | -4.44219 | 38.53823 | 36894 ft | 467 kts | 149° |
| 2026-04-24 16:52 | -4.49758 | 38.57220 | 36903 ft | 466 kts | 149° |
| 2026-04-24 16:53 | -4.55277 | 38.60607 | 36899 ft | 465 kts | 149° |
| 2026-04-24 16:53 | -4.60785 | 38.63987 | 36900 ft | 463 kts | 149° |
| 2026-04-24 16:54 | -4.66269 | 38.67352 | 36894 ft | 462 kts | 150° |
| 2026-04-24 16:54 | -4.71738 | 38.70710 | 36900 ft | 460 kts | 149° |
| 2026-04-24 16:55 | -4.77196 | 38.74061 | 36917 ft | 460 kts | 149° |
| 2026-04-24 16:55 | -4.82651 | 38.77411 | 36895 ft | 460 kts | 150° |
| 2026-04-24 16:56 | -4.88107 | 38.80753 | 36901 ft | 460 kts | 150° |
| 2026-04-24 16:56 | -4.93617 | 38.84010 | 36891 ft | 460 kts | 151° |
| 2026-04-24 16:57 | -4.99159 | 38.87249 | 36893 ft | 461 kts | 151° |
| 2026-04-24 16:57 | -5.04704 | 38.90503 | 36903 ft | 462 kts | 150° |
| 2026-04-24 16:58 | -5.10262 | 38.93776 | 36891 ft | 464 kts | 150° |
| 2026-04-24 16:58 | -5.15827 | 38.97057 | 36883 ft | 464 kts | 150° |
| 2026-04-24 16:59 | -5.21396 | 39.00343 | 36884 ft | 465 kts | 150° |
| 2026-04-24 17:00 | -5.29756 | 39.05274 | 36877 ft | 464 kts | 150° |
| 2026-04-24 17:00 | -5.38102 | 39.10198 | 36885 ft | 463 kts | 150° |
| 2026-04-24 17:01 | -5.46425 | 39.15111 | 36879 ft | 462 kts | 150° |
| 2026-04-24 17:02 | -5.54722 | 39.20009 | 36882 ft | 460 kts | 150° |
| 2026-04-24 17:02 | -5.60236 | 39.23266 | 36894 ft | 460 kts | 150° |
| 2026-04-24 17:03 | -5.68499 | 39.28147 | 36897 ft | 459 kts | 150° |
| 2026-04-24 17:04 | -5.73997 | 39.31396 | 36896 ft | 458 kts | 150° |
| 2026-04-24 17:04 | -5.82231 | 39.36264 | 36892 ft | 458 kts | 150° |
| 2026-04-24 17:05 | -5.87679 | 39.39485 | 36896 ft | 457 kts | 150° |
| 2026-04-24 17:06 | -5.95889 | 39.44368 | 36893 ft | 457 kts | 150° |
| 2026-04-24 17:06 | -6.04082 | 39.49252 | 36900 ft | 456 kts | 150° |
| 2026-04-24 17:07 | -6.09533 | 39.52500 | 36901 ft | 455 kts | 150° |
| 2026-04-24 17:08 | -6.20417 | 39.58989 | 36888 ft | 455 kts | 150° |
| 2026-04-24 17:08 | -6.25854 | 39.62230 | 36895 ft | 455 kts | 150° |
| 2026-04-24 17:09 | -6.36569 | 39.69042 | 36905 ft | 457 kts | 148° |
| 2026-04-24 17:10 | -6.47328 | 39.75880 | 36914 ft | 458 kts | 148° |
| 2026-04-24 17:12 | -6.68989 | 39.89354 | 36905 ft | 457 kts | 149° |
| 2026-04-24 18:54 | -15.72682 | 48.80567 | 37000 ft | 450 kts | 131° |
| 2026-04-24 18:55 | -15.78718 | 48.88034 | 37010 ft | 451 kts | 131° |
| 2026-04-24 18:56 | -15.82747 | 48.93022 | 37017 ft | 451 kts | 131° |
| 2026-04-24 18:56 | -15.86784 | 48.98024 | 37019 ft | 452 kts | 131° |
| 2026-04-24 18:57 | -15.90820 | 49.03028 | 37017 ft | 452 kts | 131° |
| 2026-04-24 18:57 | -15.94176 | 49.07192 | 37018 ft | 452 kts | 131° |
| 2026-04-24 18:58 | -15.98217 | 49.12208 | 37022 ft | 453 kts | 131° |
| 2026-04-24 18:58 | -16.02258 | 49.17229 | 37023 ft | 452 kts | 131° |
| 2026-04-24 18:59 | -16.06295 | 49.22247 | 37037 ft | 452 kts | 131° |
| 2026-04-24 18:59 | -16.10329 | 49.27266 | 37028 ft | 452 kts | 131° |
| 2026-04-24 19:00 | -16.14357 | 49.32280 | 37023 ft | 452 kts | 132° |
| 2026-04-24 19:00 | -16.18381 | 49.37293 | 37026 ft | 451 kts | 132° |
| 2026-04-24 19:01 | -16.22400 | 49.42303 | 37027 ft | 451 kts | 131° |
| 2026-04-24 19:01 | -16.26411 | 49.47306 | 37021 ft | 450 kts | 131° |
| 2026-04-24 19:02 | -16.30419 | 49.52310 | 37020 ft | 450 kts | 131° |
| 2026-04-24 19:02 | -16.34426 | 49.57315 | 37007 ft | 450 kts | 132° |
| 2026-04-24 19:03 | -16.38424 | 49.62314 | 37008 ft | 450 kts | 131° |
| 2026-04-24 19:03 | -16.42429 | 49.67323 | 37002 ft | 450 kts | 131° |
| 2026-04-24 19:04 | -16.46435 | 49.72338 | 37000 ft | 450 kts | 132° |
| 2026-04-24 19:04 | -16.50423 | 49.77335 | 37004 ft | 450 kts | 132° |
| 2026-04-24 19:05 | -16.54448 | 49.82381 | 36993 ft | 450 kts | 132° |
| 2026-04-24 19:05 | -16.58451 | 49.87402 | 36992 ft | 450 kts | 132° |
| 2026-04-24 19:06 | -16.62443 | 49.92414 | 36993 ft | 450 kts | 132° |
| 2026-04-24 19:06 | -16.66445 | 49.97442 | 36983 ft | 450 kts | 132° |
| 2026-04-24 19:07 | -16.70444 | 50.02470 | 36986 ft | 450 kts | 132° |
| 2026-04-24 19:07 | -16.74440 | 50.07497 | 36980 ft | 450 kts | 132° |
| 2026-04-24 19:08 | -16.78444 | 50.12539 | 36981 ft | 450 kts | 132° |
| 2026-04-24 19:08 | -16.82439 | 50.17572 | 36980 ft | 450 kts | 132° |
| 2026-04-24 19:09 | -16.86436 | 50.22612 | 36983 ft | 450 kts | 132° |
| 2026-04-24 19:09 | -16.90438 | 50.27663 | 36981 ft | 450 kts | 132° |
| 2026-04-24 19:10 | -16.94403 | 50.32669 | 36977 ft | 450 kts | 132° |
| 2026-04-24 19:10 | -16.98392 | 50.37711 | 36973 ft | 450 kts | 132° |
| 2026-04-24 19:11 | -17.02375 | 50.42747 | 36980 ft | 450 kts | 132° |
| 2026-04-24 19:11 | -17.06367 | 50.47799 | 36980 ft | 450 kts | 132° |
| 2026-04-24 19:12 | -17.10346 | 50.52838 | 36974 ft | 450 kts | 132° |
| 2026-04-24 19:12 | -17.14329 | 50.57886 | 36974 ft | 450 kts | 132° |
| 2026-04-24 19:13 | -17.17634 | 50.62078 | 36983 ft | 450 kts | 132° |
| 2026-04-24 19:13 | -17.22277 | 50.67972 | 36983 ft | 450 kts | 132° |
| 2026-04-24 19:14 | -17.26258 | 50.73028 | 36968 ft | 450 kts | 132° |
| 2026-04-24 19:14 | -17.30242 | 50.78093 | 36969 ft | 449 kts | 132° |
| 2026-04-24 19:15 | -17.34211 | 50.83142 | 36968 ft | 449 kts | 132° |
| 2026-04-24 19:15 | -17.38180 | 50.88195 | 36978 ft | 449 kts | 132° |
| 2026-04-24 19:16 | -17.44101 | 50.95741 | 36966 ft | 449 kts | 132° |
| 2026-04-24 19:16 | -17.48072 | 51.00806 | 36969 ft | 449 kts | 132° |
| 2026-04-24 19:17 | -17.52165 | 51.06030 | 36976 ft | 449 kts | 132° |
| 2026-04-24 19:17 | -17.56128 | 51.11092 | 36974 ft | 449 kts | 132° |
| 2026-04-24 19:18 | -17.60086 | 51.16153 | 36967 ft | 449 kts | 132° |
| 2026-04-24 19:18 | -17.64040 | 51.21212 | 36958 ft | 449 kts | 132° |
| 2026-04-24 19:19 | -17.67994 | 51.26275 | 36960 ft | 449 kts | 132° |
| 2026-04-24 19:19 | -17.71954 | 51.31349 | 36969 ft | 449 kts | 132° |
| 2026-04-24 19:20 | -17.75905 | 51.36416 | 36965 ft | 449 kts | 132° |
| 2026-04-24 19:20 | -17.79858 | 51.41489 | 36962 ft | 449 kts | 132° |
| 2026-04-24 19:21 | -17.83812 | 51.46568 | 36968 ft | 449 kts | 132° |
| 2026-04-24 19:21 | -17.87766 | 51.51651 | 36966 ft | 449 kts | 132° |
| 2026-04-24 19:22 | -17.91714 | 51.56729 | 36976 ft | 449 kts | 132° |
| 2026-04-24 19:22 | -17.95659 | 51.61808 | 36980 ft | 449 kts | 132° |
| 2026-04-24 19:23 | -17.99608 | 51.66895 | 36967 ft | 449 kts | 132° |
| 2026-04-24 19:23 | -18.03557 | 51.71987 | 36967 ft | 449 kts | 132° |
| 2026-04-24 19:24 | -18.07500 | 51.77076 | 36968 ft | 449 kts | 132° |
| 2026-04-24 19:24 | -18.11440 | 51.82163 | 36974 ft | 448 kts | 132° |
| 2026-04-24 19:25 | -18.15374 | 51.87248 | 36964 ft | 448 kts | 132° |
| 2026-04-24 19:25 | -18.19304 | 51.92331 | 36967 ft | 448 kts | 132° |
| 2026-04-24 19:26 | -18.23232 | 51.97416 | 36966 ft | 448 kts | 132° |
| 2026-04-24 19:26 | -18.27155 | 52.02499 | 36967 ft | 447 kts | 132° |
| 2026-04-24 19:27 | -18.31074 | 52.07580 | 36973 ft | 447 kts | 132° |
| 2026-04-24 19:27 | -18.34991 | 52.12663 | 36968 ft | 447 kts | 132° |
| 2026-04-24 19:28 | -18.38905 | 52.17746 | 36963 ft | 447 kts | 132° |
| 2026-04-24 19:28 | -18.42816 | 52.22829 | 36965 ft | 446 kts | 132° |
| 2026-04-24 19:29 | -18.48648 | 52.30416 | 36974 ft | 446 kts | 132° |
| 2026-04-24 19:30 | -18.52549 | 52.35496 | 36965 ft | 446 kts | 132° |
| 2026-04-24 19:30 | -18.56445 | 52.40574 | 36967 ft | 446 kts | 132° |
| 2026-04-24 19:31 | -18.60340 | 52.45654 | 36966 ft | 445 kts | 132° |
| 2026-04-24 19:31 | -18.64232 | 52.50735 | 36963 ft | 445 kts | 132° |
| 2026-04-24 19:32 | -18.68117 | 52.55810 | 36972 ft | 445 kts | 132° |
| 2026-04-24 19:32 | -18.72001 | 52.60890 | 36962 ft | 444 kts | 132° |
| 2026-04-24 19:33 | -18.75879 | 52.65964 | 36966 ft | 444 kts | 132° |
| 2026-04-24 19:33 | -18.79754 | 52.71039 | 36964 ft | 444 kts | 132° |
| 2026-04-24 19:34 | -18.82972 | 52.75257 | 36965 ft | 444 kts | 132° |
| 2026-04-24 19:34 | -18.86839 | 52.80328 | 36971 ft | 443 kts | 132° |
| 2026-04-24 19:35 | -18.90705 | 52.85403 | 36960 ft | 443 kts | 132° |
| 2026-04-24 19:35 | -18.94563 | 52.90472 | 36962 ft | 443 kts | 132° |
| 2026-04-24 19:36 | -18.98419 | 52.95542 | 36961 ft | 443 kts | 132° |
| 2026-04-24 19:36 | -19.02274 | 53.00615 | 36959 ft | 442 kts | 132° |
| 2026-04-24 19:37 | -19.06125 | 53.05686 | 36964 ft | 442 kts | 132° |
| 2026-04-24 19:37 | -19.09969 | 53.10753 | 36958 ft | 442 kts | 132° |
| 2026-04-24 19:38 | -19.13811 | 53.15822 | 36957 ft | 441 kts | 132° |
| 2026-04-24 19:38 | -19.17646 | 53.20886 | 36963 ft | 441 kts | 132° |
| 2026-04-24 19:39 | -19.21477 | 53.25948 | 36971 ft | 441 kts | 132° |
| 2026-04-24 19:39 | -19.25305 | 53.31012 | 36960 ft | 440 kts | 132° |
| 2026-04-24 19:40 | -19.29129 | 53.36073 | 36962 ft | 440 kts | 132° |
| 2026-04-24 19:40 | -19.32945 | 53.41128 | 36610 ft | 438 kts | 132° |
| 2026-04-24 19:40 | -19.34841 | 53.43620 | 36281 ft | 431 kts | 133° |
| 2026-04-24 19:41 | -19.36737 | 53.46049 | 35918 ft | 426 kts | 133° |
| 2026-04-24 19:41 | -19.38633 | 53.48447 | 35532 ft | 423 kts | 133° |
| 2026-04-24 19:41 | -19.40519 | 53.50823 | 35150 ft | 419 kts | 133° |
| 2026-04-24 19:41 | -19.42385 | 53.53178 | 34766 ft | 416 kts | 133° |
| 2026-04-24 19:42 | -19.44239 | 53.55521 | 34386 ft | 413 kts | 133° |
| 2026-04-24 19:42 | -19.46075 | 53.57848 | 34001 ft | 411 kts | 133° |
| 2026-04-24 19:42 | -19.47899 | 53.60164 | 33558 ft | 408 kts | 133° |
| 2026-04-24 19:42 | -19.49709 | 53.62466 | 33156 ft | 405 kts | 133° |
| 2026-04-24 19:43 | -19.51500 | 53.64746 | 32768 ft | 401 kts | 133° |
| 2026-04-24 19:43 | -19.53278 | 53.67011 | 32390 ft | 398 kts | 133° |
| 2026-04-24 19:43 | -19.55040 | 53.69256 | 32019 ft | 394 kts | 133° |
| 2026-04-24 19:43 | -19.56784 | 53.71479 | 31660 ft | 391 kts | 133° |
| 2026-04-24 19:44 | -19.58493 | 53.73658 | 31298 ft | 388 kts | 133° |
| 2026-04-24 19:44 | -19.60208 | 53.75847 | 30954 ft | 384 kts | 133° |
| 2026-04-24 19:44 | -19.61909 | 53.78017 | 30598 ft | 381 kts | 133° |
| 2026-04-24 19:44 | -19.63620 | 53.80201 | 30244 ft | 378 kts | 133° |
| 2026-04-24 19:45 | -19.65270 | 53.82308 | 29869 ft | 375 kts | 133° |
| 2026-04-24 19:45 | -19.66931 | 53.84429 | 29469 ft | 372 kts | 133° |
| 2026-04-24 19:45 | -19.68573 | 53.86528 | 29098 ft | 368 kts | 133° |
| 2026-04-24 19:45 | -19.70199 | 53.88606 | 28721 ft | 364 kts | 133° |
| 2026-04-24 19:46 | -19.71806 | 53.90661 | 28370 ft | 360 kts | 133° |
| 2026-04-24 19:46 | -19.73398 | 53.92697 | 27998 ft | 357 kts | 133° |
| 2026-04-24 19:46 | -19.74978 | 53.94718 | 27643 ft | 354 kts | 133° |
| 2026-04-24 19:46 | -19.76543 | 53.96721 | 27289 ft | 351 kts | 133° |
| 2026-04-24 19:47 | -19.78095 | 53.98708 | 26943 ft | 348 kts | 133° |
| 2026-04-24 19:47 | -19.79634 | 54.00679 | 26606 ft | 345 kts | 132° |
| 2026-04-24 19:47 | -19.81162 | 54.02637 | 26264 ft | 343 kts | 132° |
| 2026-04-24 19:47 | -19.82680 | 54.04582 | 25924 ft | 341 kts | 132° |
| 2026-04-24 19:48 | -19.84187 | 54.06513 | 25581 ft | 339 kts | 131° |
| 2026-04-24 19:48 | -19.85689 | 54.08439 | 25244 ft | 337 kts | 131° |
| 2026-04-24 19:48 | -19.88666 | 54.12258 | 24575 ft | 334 kts | 131° |
| 2026-04-24 19:49 | -19.91624 | 54.16057 | 23896 ft | 333 kts | 131° |
| 2026-04-24 19:49 | -19.94569 | 54.19840 | 23150 ft | 331 kts | 131° |
| 2026-04-24 19:50 | -19.98932 | 54.25450 | 22122 ft | 325 kts | 130° |
| 2026-04-24 19:50 | -20.00363 | 54.27292 | 21814 ft | 322 kts | 130° |
| 2026-04-24 19:51 | -20.03196 | 54.30938 | 21149 ft | 318 kts | 130° |
| 2026-04-24 19:51 | -20.04602 | 54.32749 | 20825 ft | 317 kts | 130° |
| 2026-04-24 19:52 | -20.07393 | 54.36345 | 20201 ft | 313 kts | 130° |
| 2026-04-24 19:52 | -20.08775 | 54.38126 | 19880 ft | 311 kts | 130° |
| 2026-04-24 19:52 | -20.10152 | 54.39902 | 19567 ft | 310 kts | 129° |
| 2026-04-24 19:52 | -20.11524 | 54.41672 | 19253 ft | 309 kts | 129° |
| 2026-04-24 19:53 | -20.12890 | 54.43434 | 18950 ft | 308 kts | 129° |
| 2026-04-24 19:53 | -20.14250 | 54.45189 | 18634 ft | 307 kts | 129° |
| 2026-04-24 19:53 | -20.16962 | 54.48691 | 17942 ft | 307 kts | 129° |
| 2026-04-24 19:54 | -20.18315 | 54.50439 | 17611 ft | 305 kts | 129° |
| 2026-04-24 19:54 | -20.19662 | 54.52179 | 17280 ft | 304 kts | 129° |
| 2026-04-24 19:54 | -20.21001 | 54.53910 | 16970 ft | 302 kts | 129° |
| 2026-04-24 19:54 | -20.22332 | 54.55632 | 16650 ft | 301 kts | 129° |
| 2026-04-24 19:55 | -20.23212 | 54.56769 | 16447 ft | 300 kts | 129° |
| 2026-04-24 19:55 | -20.24976 | 54.59052 | 16035 ft | 298 kts | 129° |
| 2026-04-24 19:55 | -20.26289 | 54.60751 | 15729 ft | 297 kts | 129° |
| 2026-04-24 19:55 | -20.27597 | 54.62444 | 15432 ft | 295 kts | 129° |
| 2026-04-24 19:56 | -20.28898 | 54.64129 | 15136 ft | 294 kts | 129° |
| 2026-04-24 19:56 | -20.30178 | 54.65787 | 14826 ft | 293 kts | 129° |
| 2026-04-24 19:56 | -20.31470 | 54.67461 | 14530 ft | 292 kts | 129° |
| 2026-04-24 19:56 | -20.32775 | 54.69152 | 14226 ft | 291 kts | 129° |
| 2026-04-24 19:57 | -20.34059 | 54.70817 | 13930 ft | 290 kts | 129° |
| 2026-04-24 19:57 | -20.35336 | 54.72473 | 13611 ft | 289 kts | 129° |
| 2026-04-24 19:57 | -20.36595 | 54.74106 | 13275 ft | 289 kts | 129° |
| 2026-04-24 19:57 | -20.37865 | 54.75754 | 12956 ft | 287 kts | 129° |
| 2026-04-24 19:58 | -20.39131 | 54.77396 | 12653 ft | 286 kts | 129° |
| 2026-04-24 19:58 | -20.40387 | 54.79028 | 12354 ft | 284 kts | 129° |
| 2026-04-24 19:58 | -20.41635 | 54.80648 | 12050 ft | 283 kts | 129° |
| 2026-04-24 19:58 | -20.42879 | 54.82264 | 11766 ft | 281 kts | 129° |
| 2026-04-24 19:59 | -20.44115 | 54.83870 | 11483 ft | 279 kts | 129° |
| 2026-04-24 19:59 | -20.45340 | 54.85462 | 11198 ft | 278 kts | 129° |
| 2026-04-24 19:59 | -20.46563 | 54.87052 | 10921 ft | 276 kts | 129° |
| 2026-04-24 19:59 | -20.47778 | 54.88632 | 10624 ft | 275 kts | 129° |
| 2026-04-24 20:00 | -20.48990 | 54.90209 | 10317 ft | 274 kts | 129° |
| 2026-04-24 20:00 | -20.50194 | 54.91776 | 10119 ft | 270 kts | 129° |
| 2026-04-24 20:00 | -20.51369 | 54.93305 | 9955 ft | 265 kts | 129° |
| 2026-04-24 20:00 | -20.52539 | 54.94828 | 9646 ft | 265 kts | 128° |
| 2026-04-24 20:01 | -20.53701 | 54.96340 | 9368 ft | 263 kts | 128° |
| 2026-04-24 20:01 | -20.54854 | 54.97843 | 9078 ft | 262 kts | 128° |
| 2026-04-24 20:01 | -20.56005 | 54.99341 | 8791 ft | 260 kts | 128° |
| 2026-04-24 20:01 | -20.57147 | 55.00828 | 8531 ft | 258 kts | 128° |
| 2026-04-24 20:02 | -20.57912 | 55.01825 | 8344 ft | 257 kts | 128° |
| 2026-04-24 20:02 | -20.59406 | 55.03775 | 7984 ft | 255 kts | 128° |
| 2026-04-24 20:02 | -20.60527 | 55.05237 | 7718 ft | 254 kts | 128° |
| 2026-04-24 20:02 | -20.61644 | 55.06695 | 7455 ft | 253 kts | 127° |
| 2026-04-24 20:03 | -20.62753 | 55.08141 | 7201 ft | 251 kts | 127° |
| 2026-04-24 20:03 | -20.63856 | 55.09580 | 6946 ft | 249 kts | 127° |
| 2026-04-24 20:03 | -20.64952 | 55.11012 | 6678 ft | 249 kts | 127° |
| 2026-04-24 20:03 | -20.66042 | 55.12436 | 6419 ft | 247 kts | 127° |
| 2026-04-24 20:04 | -20.67125 | 55.13851 | 6160 ft | 245 kts | 127° |
| 2026-04-24 20:04 | -20.68200 | 55.15257 | 5902 ft | 243 kts | 127° |
| 2026-04-24 20:04 | -20.69248 | 55.16625 | 5806 ft | 234 kts | 127° |
| 2026-04-24 20:04 | -20.70260 | 55.17948 | 5698 ft | 226 kts | 127° |
| 2026-04-24 20:05 | -20.71236 | 55.19224 | 5592 ft | 218 kts | 127° |
| 2026-04-24 20:05 | -20.72174 | 55.20451 | 5511 ft | 208 kts | 126° |
| 2026-04-24 20:05 | -20.73085 | 55.21643 | 5442 ft | 207 kts | 127° |
| 2026-04-24 20:05 | -20.73996 | 55.22836 | 5334 ft | 207 kts | 126° |
| 2026-04-24 20:06 | -20.74904 | 55.24025 | 5118 ft | 206 kts | 127° |
| 2026-04-24 20:06 | -20.75807 | 55.25206 | 4887 ft | 204 kts | 127° |
| 2026-04-24 20:06 | -20.76696 | 55.26369 | 4696 ft | 200 kts | 126° |
| 2026-04-24 20:06 | -20.77569 | 55.27513 | 4480 ft | 199 kts | 127° |
| 2026-04-24 20:07 | -20.78116 | 55.28302 | 4327 ft | 200 kts | 119° |
| 2026-04-24 20:07 | -20.78977 | 55.30039 | 4033 ft | 196 kts | 115° |
| 2026-04-24 20:07 | -20.79572 | 55.31329 | 3786 ft | 191 kts | 114° |
| 2026-04-24 20:07 | -20.80151 | 55.32587 | 3558 ft | 186 kts | 115° |
| 2026-04-24 20:08 | -20.80718 | 55.33814 | 3324 ft | 182 kts | 115° |
| 2026-04-24 20:08 | -20.81272 | 55.35009 | 3083 ft | 177 kts | 115° |
| 2026-04-24 20:08 | -20.81810 | 55.36168 | 2854 ft | 171 kts | 115° |
| 2026-04-24 20:08 | -20.82333 | 55.37296 | 2650 ft | 167 kts | 115° |
| 2026-04-24 20:09 | -20.82836 | 55.38380 | 2425 ft | 163 kts | 115° |
| 2026-04-24 20:09 | -20.83325 | 55.39438 | 2245 ft | 155 kts | 116° |
| 2026-04-24 20:09 | -20.83785 | 55.40428 | 2063 ft | 140 kts | 116° |
| 2026-04-24 20:09 | -20.84209 | 55.41342 | 1854 ft | 138 kts | 117° |
| 2026-04-24 20:10 | -20.84638 | 55.42267 | 1679 ft | 138 kts | 117° |
| 2026-04-24 20:10 | -20.85060 | 55.43171 | 1491 ft | 134 kts | 114° |
| 2026-04-24 20:10 | -20.85474 | 55.44067 | 1327 ft | 135 kts | 115° |
| 2026-04-24 20:10 | -20.85892 | 55.44968 | 1149 ft | 135 kts | 115° |
| 2026-04-24 20:11 | -20.86304 | 55.45854 | 977 ft | 131 kts | 115° |
| 2026-04-24 20:11 | -20.86724 | 55.46759 | 818 ft | 143 kts | 117° |
| 2026-04-24 20:11 | -20.87177 | 55.47733 | 625 ft | 146 kts | 114° |
| 2026-04-24 20:11 | -20.87615 | 55.48678 | 419 ft | 140 kts | 115° |
| 2026-04-24 20:12 | -20.88048 | 55.49629 | 252 ft | 144 kts | 115° |
| 2026-04-24 20:12 | -20.88501 | 55.50598 | 90 ft | 144 kts | 117° |
| 2026-04-24 20:12 | -20.88920 | 55.51483 | 63 ft | 115 kts | 117° |
| 2026-04-24 20:12 | -20.89177 | 55.52042 | 59 ft | 53 kts | 116° |
| 2026-04-24 20:13 | -20.89257 | 55.52201 | 61 ft | 12 kts | 133° |
| 2026-04-24 20:13 | -20.89333 | 55.52206 | 65 ft | 12 kts | 208° |
| 2026-04-24 20:13 | -20.89405 | 55.52169 | 87 ft | 11 kts | 224° |
| 2026-04-24 20:13 | -20.89401 | 55.52097 | 85 ft | 0 kts | 300° |
| 2026-04-24 20:14 | -20.89400 | 55.52096 | 85 ft | 0 kts | 300° |
| 2026-04-24 20:14 | -20.89396 | 55.52091 | 87 ft | 4 kts | 306° |
| 2026-04-24 20:14 | -20.89351 | 55.52015 | 84 ft | 17 kts | 295° |
| 2026-04-24 20:14 | -20.89313 | 55.51928 | 84 ft | 10 kts | 295° |
| 2026-04-24 20:15 | -20.89282 | 55.51862 | 84 ft | 10 kts | 297° |
| 2026-04-24 20:15 | -20.89255 | 55.51803 | 83 ft | 0 kts | 295° |
| 2026-04-24 20:15 | -20.89254 | 55.51802 | 83 ft | 0 kts | 295° |
| 2026-04-24 20:15 | -20.89252 | 55.51798 | 83 ft | 1 kts | 295° |
| 2026-04-24 20:16 | -20.89244 | 55.51780 | 86 ft | 4 kts | 295° |
| 2026-04-24 20:16 | -20.89229 | 55.51746 | 85 ft | 6 kts | 296° |
| 2026-04-24 20:16 | -20.89210 | 55.51706 | 82 ft | 7 kts | 296° |
| 2026-04-24 20:16 | -20.89222 | 55.51658 | 82 ft | 8 kts | 220° |
| 2026-04-24 20:17 | -20.89256 | 55.51638 | 82 ft | 2 kts | 207° |